Time;durP1;ratioP1;P1;durP2;ratioP2;P2;SDS_P1;SDS_P2;PMS_P1;PMS_P2;Temp;Humidity;BMP_temperature;BMP_pressure;BME280_temperature;BME280_humidity;BME280_pressure;Samples;Min_cycle;Max_cycle;Signal;HPM_P1;HPM_P2
2021/08/23 00:00:22;;;;;;;3.05;2.70;;;19.80;99.90;;;;;;4159205;28;20672;-69
2021/08/23 00:02:23;;;;;;;3.08;2.50;;;19.80;99.90;;;;;;4159408;28;20033;-69
2021/08/23 00:04:23;;;;;;;4.13;3.22;;;19.80;99.90;;;;;;4159883;28;20036;-69
2021/08/23 00:06:24;;;;;;;3.92;3.60;;;19.80;99.90;;;;;;4159257;28;20042;-69
2021/08/23 00:08:25;;;;;;;4.65;3.70;;;19.70;99.90;;;;;;4159668;28;20116;-69
2021/08/23 00:10:26;;;;;;;4.65;3.42;;;19.80;99.90;;;;;;4159584;28;20026;-69
2021/08/23 00:12:29;;;;;;;3.88;3.00;;;19.80;99.90;;;;;;4159311;28;20037;-69
2021/08/23 00:14:30;;;;;;;;;;;19.80;99.90;;;;;;4153431;28;20030;-69
2021/08/23 00:16:30;;;;;;;4.28;3.13;;;19.80;99.90;;;;;;4158400;28;19909;-69
2021/08/23 00:18:31;;;;;;;3.67;3.20;;;19.80;99.90;;;;;;4159386;28;20025;-69
2021/08/23 00:20:42;;;;;;;3.63;2.80;;;19.80;99.90;;;;;;4158055;28;20014;-69
2021/08/23 00:22:47;;;;;;;4.53;3.47;;;19.80;99.90;;;;;;4156963;28;20034;-69
2021/08/23 00:24:51;;;;;;;3.45;3.08;;;19.90;99.90;;;;;;4155728;28;20038;-69
2021/08/23 00:26:57;;;;;;;4.43;3.40;;;19.90;99.90;;;;;;4159465;28;20458;-69
2021/08/23 00:28:58;;;;;;;3.30;3.00;;;19.90;99.90;;;;;;4151585;28;20038;-69
2021/08/23 00:30:58;;;;;;;4.72;3.30;;;19.90;99.90;;;;;;4142426;28;20405;-69
2021/08/23 00:32:59;;;;;;;5.10;3.83;;;19.90;99.90;;;;;;4159291;28;20358;-69
2021/08/23 00:35:00;;;;;;;4.65;3.42;;;19.90;99.90;;;;;;4159312;28;20025;-69
2021/08/23 00:37:00;;;;;;;3.97;3.58;;;19.80;99.90;;;;;;4159568;28;20022;-69
2021/08/23 00:39:01;;;;;;;5.80;3.65;;;19.90;99.90;;;;;;4150982;28;20402;-69
2021/08/23 00:41:02;;;;;;;3.33;2.75;;;19.80;99.90;;;;;;4153044;28;20038;-69
2021/08/23 00:43:03;;;;;;;4.35;2.95;;;19.90;99.90;;;;;;4157277;28;20033;-69
2021/08/23 00:45:04;;;;;;;3.75;3.20;;;19.80;99.90;;;;;;4159377;28;20114;-69
2021/08/23 00:47:06;;;;;;;3.83;2.92;;;19.80;99.90;;;;;;4159194;28;20375;-69
2021/08/23 00:49:07;;;;;;;3.47;2.92;;;19.90;99.90;;;;;;4157607;28;20088;-69
2021/08/23 00:51:07;;;;;;;3.17;2.80;;;19.90;99.90;;;;;;4157775;28;20037;-69
2021/08/23 00:53:08;;;;;;;4.63;3.00;;;19.90;99.90;;;;;;4159212;28;20037;-69
2021/08/23 00:55:09;;;;;;;3.92;3.17;;;19.90;99.90;;;;;;4152514;28;20096;-69
2021/08/23 00:57:10;;;;;;;3.53;3.03;;;19.90;99.90;;;;;;4157407;28;20562;-69
2021/08/23 00:59:11;;;;;;;4.75;2.75;;;19.90;99.90;;;;;;4159138;28;20044;-69
2021/08/23 01:01:30;;;;;;;3.05;2.75;;;20.00;99.90;;;;;;4157521;28;20117;-69
2021/08/23 01:03:50;;;;;;;3.25;2.80;;;20.00;99.90;;;;;;4151952;28;20037;-69
2021/08/23 01:05:51;;;;;;;3.70;2.80;;;20.00;99.90;;;;;;4158927;28;20056;-69
2021/08/23 01:07:57;;;;;;;4.13;3.22;;;20.00;99.90;;;;;;4153388;28;20053;-69
2021/08/23 01:10:12;;;;;;;3.75;2.95;;;20.10;99.90;;;;;;4155169;28;20389;-69
2021/08/23 01:12:13;;;;;;;3.65;2.97;;;20.10;99.90;;;;;;4158860;28;20532;-69
2021/08/23 01:14:13;;;;;;;3.47;3.15;;;20.10;99.90;;;;;;4152876;28;20034;-69
2021/08/23 01:16:15;;;;;;;5.47;3.90;;;20.10;99.90;;;;;;4142490;28;20121;-69
2021/08/23 01:18:16;;;;;;;4.22;3.60;;;20.10;99.90;;;;;;4147549;28;20537;-69
2021/08/23 01:20:16;;;;;;;5.95;3.67;;;20.10;99.90;;;;;;4145708;28;20053;-69
2021/08/23 01:22:18;;;;;;;4.47;3.50;;;20.00;99.90;;;;;;4154033;28;20038;-69
2021/08/23 01:24:19;;;;;;;3.40;2.72;;;20.10;99.90;;;;;;4154131;28;20038;-69
2021/08/23 01:26:26;;;;;;;3.72;2.78;;;20.10;99.90;;;;;;4143124;28;20096;-69
2021/08/23 01:28:51;;;;;;;3.38;2.92;;;20.10;99.90;;;;;;4151399;28;20446;-69
2021/08/23 01:31:15;;;;;;;3.08;2.72;;;20.10;99.90;;;;;;4153053;28;20076;-69
2021/08/23 01:33:16;;;;;;;2.95;2.60;;;20.10;99.90;;;;;;4156469;28;20044;-69
2021/08/23 01:35:17;;;;;;;3.30;2.47;;;20.10;99.90;;;;;;4158766;28;20105;-69
2021/08/23 01:37:17;;;;;;;3.13;2.70;;;20.10;99.90;;;;;;4158546;28;20061;-69
2021/08/23 01:39:19;;;;;;;5.07;3.30;;;20.20;99.90;;;;;;4156792;28;20030;-69
2021/08/23 01:41:20;;;;;;;6.75;2.95;;;20.10;99.90;;;;;;4147470;28;20633;-69
2021/08/23 01:43:20;;;;;;;5.00;2.65;;;20.10;99.90;;;;;;4158624;28;20065;-69
2021/08/23 01:45:21;;;;;;;3.17;2.67;;;20.20;99.90;;;;;;4158434;28;20039;-69
2021/08/23 01:47:21;;;;;;;3.97;2.50;;;20.10;99.90;;;;;;4158744;28;20076;-69
2021/08/23 01:49:22;;;;;;;3.17;2.42;;;20.10;99.90;;;;;;4147688;28;20456;-69
2021/08/23 01:51:23;;;;;;;3.30;2.65;;;20.20;99.90;;;;;;4134165;28;20045;-69
2021/08/23 01:53:24;;;;;;;3.65;2.80;;;20.20;99.90;;;;;;4148773;28;20037;-69
2021/08/23 01:55:24;;;;;;;3.33;2.58;;;20.10;99.90;;;;;;4149685;28;20060;-69
2021/08/23 01:57:25;;;;;;;3.92;2.75;;;20.20;99.90;;;;;;4144704;28;20363;-69
2021/08/23 01:59:26;;;;;;;3.25;2.72;;;20.20;99.90;;;;;;4161597;28;20426;-69
2021/08/23 02:01:28;;;;;;;4.38;3.03;;;20.20;99.90;;;;;;4160937;28;20044;-69
2021/08/23 02:03:29;;;;;;;6.25;3.20;;;20.20;99.90;;;;;;4160132;28;20033;-69
2021/08/23 02:05:30;;;;;;;3.47;2.63;;;20.20;99.90;;;;;;4161186;28;20037;-69
2021/08/23 02:07:31;;;;;;;3.22;2.60;;;20.20;99.90;;;;;;4159746;28;20034;-69
2021/08/23 02:09:31;;;;;;;4.20;2.58;;;20.20;99.90;;;;;;4160893;28;20029;-69
2021/08/23 02:11:32;;;;;;;3.85;2.47;;;20.20;99.90;;;;;;4148888;28;20120;-69
2021/08/23 02:13:32;;;;;;;3.28;2.78;;;20.20;99.90;;;;;;4161468;28;20037;-69
2021/08/23 02:15:33;;;;;;;6.47;3.28;;;20.20;99.90;;;;;;4153293;28;20034;-69
2021/08/23 02:17:33;;;;;;;3.80;3.10;;;20.20;99.90;;;;;;4152909;28;20033;-69
2021/08/23 02:19:34;;;;;;;3.70;2.95;;;20.20;99.90;;;;;;4143099;28;20032;-69
2021/08/23 02:21:54;;;;;;;3.50;3.17;;;20.20;99.90;;;;;;4142981;28;20030;-69
2021/08/23 02:23:55;;;;;;;3.83;3.08;;;20.20;99.90;;;;;;4149534;28;20045;-70
2021/08/23 02:25:56;;;;;;;4.05;3.25;;;20.20;99.90;;;;;;4155731;28;20053;-69
2021/08/23 02:27:57;;;;;;;4.05;3.20;;;20.10;99.90;;;;;;4157987;28;20033;-69
2021/08/23 02:29:57;;;;;;;4.38;3.42;;;20.20;99.90;;;;;;4157102;28;20056;-69
2021/08/23 02:31:58;;;;;;;3.60;3.28;;;20.20;99.90;;;;;;4143251;28;20049;-69
2021/08/23 02:33:58;;;;;;;7.10;3.33;;;20.20;99.90;;;;;;4148471;28;20026;-69
2021/08/23 02:35:59;;;;;;;5.97;3.90;;;20.20;99.90;;;;;;4160990;28;20025;-69
2021/08/23 02:38:00;;;;;;;4.93;3.28;;;20.10;99.90;;;;;;4155449;28;20029;-69
2021/08/23 02:40:00;;;;;;;4.25;3.75;;;20.10;99.90;;;;;;4157517;28;20040;-69
2021/08/23 02:42:01;;;;;;;5.72;3.95;;;20.10;99.90;;;;;;4149255;28;20040;-69
2021/08/23 02:44:01;;;;;;;4.53;4.00;;;20.10;99.90;;;;;;4161174;28;20508;-69
2021/08/23 02:46:02;;;;;;;4.60;4.03;;;20.10;99.90;;;;;;4153169;28;20390;-69
2021/08/23 02:48:03;;;;;;;4.78;3.85;;;20.10;99.90;;;;;;4150799;28;20401;-69
2021/08/23 02:50:05;;;;;;;5.00;4.22;;;20.00;99.90;;;;;;4160849;28;20030;-69
2021/08/23 02:52:06;;;;;;;4.60;3.83;;;20.00;99.90;;;;;;4159291;28;20037;-69
2021/08/23 02:54:06;;;;;;;5.15;4.18;;;20.00;99.90;;;;;;4158936;28;20425;-69
2021/08/23 02:56:07;;;;;;;6.20;4.30;;;20.00;99.90;;;;;;4153915;28;20034;-69
2021/08/23 02:58:08;;;;;;;5.82;4.15;;;19.90;99.90;;;;;;4142621;28;20034;-69
2021/08/23 03:00:10;;;;;;;5.53;4.40;;;19.90;99.90;;;;;;4157182;28;20038;-69
2021/08/23 03:02:11;;;;;;;6.53;5.07;;;19.90;99.90;;;;;;4160793;28;20083;-69
2021/08/23 03:04:11;;;;;;;9.65;5.55;;;19.90;99.90;;;;;;4159575;28;20343;-69
2021/08/23 03:06:12;;;;;;;7.20;6.22;;;19.90;99.90;;;;;;4160657;28;20041;-69
2021/08/23 03:08:12;;;;;;;7.68;6.38;;;19.90;99.90;;;;;;4160254;28;20045;-69
2021/08/23 03:10:13;;;;;;;7.18;6.20;;;19.80;99.90;;;;;;4159740;28;20117;-69
2021/08/23 03:12:15;;;;;;;8.48;6.13;;;19.80;99.90;;;;;;4145278;28;20045;-69
2021/08/23 03:14:15;;;;;;;8.67;5.97;;;19.80;99.90;;;;;;4160648;28;20041;-69
2021/08/23 03:16:16;;;;;;;7.25;5.43;;;19.80;99.90;;;;;;4159895;28;20033;-69
2021/08/23 03:18:17;;;;;;;5.35;4.85;;;19.80;99.90;;;;;;4160461;28;20025;-69
2021/08/23 03:20:17;;;;;;;5.75;4.93;;;19.80;99.90;;;;;;4160340;28;20171;-69
2021/08/23 03:22:18;;;;;;;6.43;5.25;;;19.80;99.90;;;;;;4160168;28;20112;-69
2021/08/23 03:24:18;;;;;;;5.57;4.75;;;19.80;99.90;;;;;;4137900;28;20041;-69
2021/08/23 03:26:19;;;;;;;8.02;5.18;;;19.80;99.90;;;;;;4151295;28;20034;-69
2021/08/23 03:28:20;;;;;;;7.13;5.20;;;19.80;99.90;;;;;;4141992;28;20030;-69
2021/08/23 03:30:21;;;;;;;6.25;4.82;;;19.80;99.90;;;;;;4151953;28;20120;-69
2021/08/23 03:32:22;;;;;;;6.05;5.28;;;19.80;99.90;;;;;;4151926;28;20037;-69
2021/08/23 03:34:22;;;;;;;7.30;5.72;;;19.80;99.90;;;;;;4160265;28;20067;-69
2021/08/23 03:36:23;;;;;;;5.70;4.65;;;19.80;99.90;;;;;;4156257;28;20061;-69
2021/08/23 03:38:23;;;;;;;5.93;4.95;;;19.80;99.90;;;;;;4142018;28;20105;-69
2021/08/23 03:40:24;;;;;;;6.65;5.60;;;19.80;99.90;;;;;;4158492;28;20378;-69
2021/08/23 03:42:24;;;;;;;5.53;4.72;;;19.80;99.90;;;;;;4160034;28;20037;-69
2021/08/23 03:44:25;;;;;;;6.10;4.65;;;19.80;99.90;;;;;;4142120;28;20081;-69
2021/08/23 03:46:27;;;;;;;5.72;5.13;;;19.80;99.90;;;;;;4155525;28;20129;-69
2021/08/23 03:48:28;;;;;;;6.60;5.88;;;19.80;99.90;;;;;;4150895;28;20429;-69
2021/08/23 03:50:29;;;;;;;5.97;5.38;;;19.80;99.90;;;;;;4151180;28;20033;-69
2021/08/23 03:52:29;;;;;;;8.05;6.05;;;19.80;99.90;;;;;;4147462;28;20077;-69
2021/08/23 03:54:30;;;;;;;7.40;5.78;;;19.80;99.90;;;;;;4153851;28;20053;-69
2021/08/23 03:56:30;;;;;;;9.23;6.57;;;19.70;99.90;;;;;;4159762;28;20041;-69
2021/08/23 03:58:31;;;;;;;7.20;5.95;;;19.70;99.90;;;;;;4158205;28;20057;-69
2021/08/23 04:00:31;;;;;;;7.53;6.38;;;19.70;99.90;;;;;;4159757;28;20082;-69
2021/08/23 04:02:33;;;;;;;9.30;5.82;;;19.60;99.90;;;;;;4147297;28;20052;-69
2021/08/23 04:04:33;;;;;;;8.45;5.90;;;19.60;99.90;;;;;;4155268;28;20041;-69
2021/08/23 04:06:34;;;;;;;9.18;5.93;;;19.60;99.90;;;;;;4159671;28;20026;-69
2021/08/23 04:08:34;;;;;;;7.35;5.70;;;19.60;99.90;;;;;;4159737;28;20362;-69
2021/08/23 04:10:35;;;;;;;7.20;5.82;;;19.60;99.90;;;;;;4151485;28;20037;-69
2021/08/23 04:12:36;;;;;;;7.93;6.63;;;19.60;99.90;;;;;;4159456;28;20030;-69
2021/08/23 04:14:36;;;;;;;9.57;6.57;;;19.60;99.90;;;;;;4159655;28;20056;-69
2021/08/23 04:16:37;;;;;;;7.72;6.65;;;19.60;99.90;;;;;;4157655;28;20501;-69
2021/08/23 04:18:38;;;;;;;9.95;7.32;;;19.60;99.90;;;;;;4156831;28;20029;-69
2021/08/23 04:20:38;;;;;;;9.93;7.15;;;19.60;99.90;;;;;;4155211;28;20116;-69
2021/08/23 04:22:39;;;;;;;8.75;7.13;;;19.60;99.90;;;;;;4159494;28;20090;-69
2021/08/23 04:24:40;;;;;;;8.75;7.30;;;19.60;99.90;;;;;;4157607;28;20037;-69
2021/08/23 04:26:41;;;;;;;8.98;7.05;;;19.60;99.90;;;;;;4159407;28;20653;-69
2021/08/23 04:28:41;;;;;;;8.55;6.93;;;19.60;99.90;;;;;;4142929;28;20042;-69
2021/08/23 04:30:42;;;;;;;10.48;7.60;;;19.50;99.90;;;;;;4151101;28;20047;-69
2021/08/23 04:32:42;;;;;;;9.68;7.78;;;19.50;99.90;;;;;;4158657;28;20028;-69
2021/08/23 04:34:43;;;;;;;15.23;8.50;;;19.50;99.90;;;;;;4153174;28;20022;-69
2021/08/23 04:36:43;;;;;;;11.45;8.15;;;19.50;99.90;;;;;;4156997;28;20041;-69
2021/08/23 04:38:44;;;;;;;10.30;8.00;;;19.40;99.90;;;;;;4156312;28;20033;-69
2021/08/23 04:40:44;;;;;;;8.73;7.57;;;19.40;99.90;;;;;;4157729;28;20059;-69
2021/08/23 04:42:45;;;;;;;9.13;7.57;;;19.40;99.90;;;;;;4155015;28;20113;-69
2021/08/23 04:44:46;;;;;;;9.80;7.50;;;19.40;99.90;;;;;;4159030;28;20397;-69
2021/08/23 04:46:49;;;;;;;9.52;8.02;;;19.40;99.90;;;;;;4159274;28;20072;-69
2021/08/23 04:48:52;;;;;;;11.90;8.30;;;19.40;99.90;;;;;;4142784;28;20031;-69
2021/08/23 04:50:52;;;;;;;10.73;9.05;;;19.30;99.90;;;;;;4151072;28;20708;-69
2021/08/23 04:52:53;;;;;;;9.32;8.23;;;19.30;99.90;;;;;;4152880;28;20084;-69
2021/08/23 04:54:53;;;;;;;11.60;8.50;;;19.30;99.90;;;;;;4140949;28;20041;-69
2021/08/23 04:56:54;;;;;;;12.00;8.45;;;19.30;99.90;;;;;;4155447;28;20486;-68
2021/08/23 04:58:54;;;;;;;9.25;8.13;;;19.30;99.90;;;;;;4157437;28;20394;-68
2021/08/23 05:00:55;;;;;;;10.73;8.50;;;19.30;99.90;;;;;;4155772;28;20037;-68
2021/08/23 05:02:56;;;;;;;12.27;8.23;;;19.30;99.90;;;;;;4151067;28;20033;-68
2021/08/23 05:04:56;;;;;;;10.82;8.30;;;19.30;99.90;;;;;;4153278;28;20116;-68
2021/08/23 05:06:57;;;;;;;13.48;10.48;;;19.20;99.90;;;;;;4152353;28;20053;-69
2021/08/23 05:08:58;;;;;;;12.77;9.65;;;19.30;99.90;;;;;;4140243;28;20045;-68
2021/08/23 05:10:59;;;;;;;12.77;10.85;;;19.30;99.90;;;;;;4150221;28;20110;-69
2021/08/23 05:13:00;;;;;;;15.63;11.32;;;19.30;99.90;;;;;;4153123;28;20488;-69
2021/08/23 05:15:01;;;;;;;16.92;12.82;;;19.30;99.90;;;;;;4151834;28;20575;-69
2021/08/23 05:17:01;;;;;;;16.83;13.23;;;19.30;99.90;;;;;;4152777;28;20112;-68
2021/08/23 05:19:02;;;;;;;16.77;13.18;;;19.20;99.90;;;;;;4147627;28;20052;-69
2021/08/23 05:21:03;;;;;;;16.33;12.73;;;19.30;99.90;;;;;;4145313;28;20045;-69
2021/08/23 05:23:05;;;;;;;16.30;12.85;;;19.20;99.90;;;;;;4143123;28;20548;-69
2021/08/23 05:25:06;;;;;;;17.25;13.48;;;19.30;99.90;;;;;;4145125;28;20371;-69
2021/08/23 05:27:07;;;;;;;19.77;14.30;;;19.30;99.90;;;;;;4145558;28;20106;-69
2021/08/23 05:29:08;;;;;;;18.98;13.07;;;19.30;99.90;;;;;;4144364;28;20495;-70
2021/08/23 05:31:08;;;;;;;22.00;15.38;;;19.30;99.90;;;;;;4150530;28;20076;-68
2021/08/23 05:33:09;;;;;;;22.17;16.10;;;19.20;99.90;;;;;;4149831;28;20045;-69
2021/08/23 05:35:11;;;;;;;20.80;15.18;;;19.20;99.90;;;;;;4145577;28;20045;-69
2021/08/23 05:37:12;;;;;;;21.90;15.88;;;19.20;99.90;;;;;;4146843;28;20193;-69
2021/08/23 05:39:12;;;;;;;20.50;15.60;;;19.20;99.90;;;;;;4149543;28;20050;-69
2021/08/23 05:41:13;;;;;;;19.80;15.32;;;19.20;99.90;;;;;;4148322;28;20030;-69
2021/08/23 05:43:13;;;;;;;20.67;16.23;;;19.20;99.90;;;;;;4141317;28;20505;-69
2021/08/23 05:45:14;;;;;;;18.90;13.68;;;19.20;99.90;;;;;;4154712;28;20080;-69
2021/08/23 05:47:14;;;;;;;20.17;14.95;;;19.20;99.90;;;;;;4154344;28;20131;-69
2021/08/23 05:49:15;;;;;;;20.80;15.23;;;19.20;99.90;;;;;;4148925;28;20037;-69
2021/08/23 05:51:17;;;;;;;21.05;15.13;;;19.20;99.90;;;;;;4140676;28;20065;-69
2021/08/23 05:53:18;;;;;;;;;;;19.10;99.90;;;;;;4137774;28;20117;-69
2021/08/23 05:55:19;;;;;;;15.98;12.55;;;19.20;99.90;;;;;;4136412;28;19972;-69
2021/08/23 05:57:21;;;;;;;18.05;14.00;;;19.20;99.90;;;;;;4137808;28;20229;-69
2021/08/23 05:59:21;;;;;;;19.00;13.98;;;19.10;99.90;;;;;;4138856;28;20108;-69
2021/08/23 06:01:22;;;;;;;18.85;13.63;;;19.10;99.90;;;;;;4139247;28;20379;-69
2021/08/23 06:03:22;;;;;;;18.80;13.50;;;19.00;99.90;;;;;;4153337;28;20041;-69
2021/08/23 06:05:23;;;;;;;18.63;12.82;;;19.10;99.90;;;;;;4140467;28;20474;-69
2021/08/23 06:07:24;;;;;;;19.10;14.45;;;19.10;99.90;;;;;;4121116;28;20030;-69
2021/08/23 06:09:24;;;;;;;19.45;14.32;;;19.00;99.90;;;;;;4144143;28;20408;-69
2021/08/23 06:11:25;;;;;;;19.10;14.95;;;19.00;99.90;;;;;;4136673;28;20564;-69
2021/08/23 06:13:25;;;;;;;17.63;13.90;;;19.00;99.90;;;;;;4140838;28;20037;-69
2021/08/23 06:15:26;;;;;;;19.15;15.05;;;19.00;99.90;;;;;;4150205;28;20029;-69
2021/08/23 06:17:29;;;;;;;20.60;15.77;;;19.00;99.90;;;;;;4154395;28;20042;-69
2021/08/23 06:19:29;;;;;;;23.23;16.65;;;19.00;99.90;;;;;;4140480;28;20044;-69
2021/08/23 06:21:30;;;;;;;22.50;16.98;;;19.00;99.90;;;;;;4136928;28;20073;-69
2021/08/23 06:23:31;;;;;;;19.88;15.45;;;19.00;99.90;;;;;;4138932;28;20045;-69
2021/08/23 06:25:31;;;;;;;19.27;15.32;;;19.00;99.90;;;;;;4144038;28;20488;-69
2021/08/23 06:27:32;;;;;;;20.02;14.80;;;19.00;99.90;;;;;;4141261;28;20041;-69
2021/08/23 06:29:33;;;;;;;18.60;15.02;;;19.10;99.90;;;;;;4136176;28;20210;-70
2021/08/23 06:31:33;;;;;;;24.70;17.63;;;19.10;99.90;;;;;;4149422;28;20029;-69
2021/08/23 06:33:34;;;;;;;22.48;16.35;;;19.10;99.90;;;;;;4156475;28;20033;-69
2021/08/23 06:35:35;;;;;;;21.75;15.93;;;19.10;99.90;;;;;;4149161;28;20338;-69
2021/08/23 06:37:36;;;;;;;22.58;16.48;;;19.10;99.90;;;;;;4154384;28;20113;-69
2021/08/23 06:39:37;;;;;;;22.83;17.02;;;19.10;99.90;;;;;;4136677;28;20030;-69
2021/08/23 06:41:38;;;;;;;20.10;14.90;;;19.20;99.90;;;;;;4136382;28;20117;-69
2021/08/23 06:43:38;;;;;;;20.20;15.25;;;19.20;99.90;;;;;;4136669;28;20084;-69
2021/08/23 06:45:39;;;;;;;20.55;15.82;;;19.20;99.90;;;;;;4137220;28;20526;-69
2021/08/23 06:47:39;;;;;;;19.83;13.90;;;19.20;99.90;;;;;;4134993;28;20048;-69
2021/08/23 06:49:40;;;;;;;18.67;13.32;;;19.20;99.90;;;;;;4137581;28;20053;-69
2021/08/23 06:51:40;;;;;;;17.02;12.30;;;19.20;99.90;;;;;;4145640;28;20033;-69
2021/08/23 06:53:41;;;;;;;17.45;13.13;;;19.20;99.90;;;;;;4151772;28;20038;-69
2021/08/23 06:55:42;;;;;;;16.77;12.82;;;19.20;99.90;;;;;;4146207;28;20075;-69
2021/08/23 06:57:42;;;;;;;22.10;13.40;;;19.30;99.90;;;;;;4148736;28;20141;-69
2021/08/23 06:59:43;;;;;;;20.20;14.15;;;19.30;99.90;;;;;;4147914;28;20502;-69
2021/08/23 07:01:43;;;;;;;18.90;14.00;;;19.30;99.90;;;;;;4144485;28;20663;-69
2021/08/23 07:03:45;;;;;;;17.50;12.73;;;19.30;99.90;;;;;;4141648;28;20030;-69
2021/08/23 07:05:46;;;;;;;20.40;14.55;;;19.40;99.90;;;;;;4138184;28;20379;-69
2021/08/23 07:07:47;;;;;;;20.05;14.40;;;19.40;99.90;;;;;;4137298;28;20607;-69
2021/08/23 07:09:47;;;;;;;20.58;13.90;;;19.40;99.90;;;;;;4138276;28;20061;-69
2021/08/23 07:11:48;;;;;;;20.48;15.07;;;19.40;99.90;;;;;;4148075;28;20042;-69
2021/08/23 07:13:48;;;;;;;19.30;13.55;;;19.40;99.90;;;;;;4149208;28;20042;-69
2021/08/23 07:15:49;;;;;;;19.00;13.52;;;19.40;99.90;;;;;;4128046;28;20561;-69
2021/08/23 07:17:50;;;;;;;16.63;12.32;;;19.40;99.90;;;;;;4147187;28;20557;-69
2021/08/23 07:19:50;;;;;;;15.27;11.63;;;19.40;99.90;;;;;;4147366;28;20490;-69
2021/08/23 07:21:51;;;;;;;15.43;11.20;;;19.40;99.90;;;;;;4147254;28;20128;-69
2021/08/23 07:23:52;;;;;;;13.50;10.93;;;19.40;99.90;;;;;;4139078;28;20691;-69
2021/08/23 07:25:53;;;;;;;15.73;11.23;;;19.40;99.90;;;;;;4136797;28;20059;-69
2021/08/23 07:27:53;;;;;;;14.98;11.32;;;19.40;99.90;;;;;;4140781;28;20429;-69
2021/08/23 07:29:54;;;;;;;14.30;10.23;;;19.40;99.90;;;;;;4135433;28;20042;-69
2021/08/23 07:31:54;;;;;;;14.10;9.93;;;19.40;99.90;;;;;;4140056;28;20039;-69
2021/08/23 07:33:55;;;;;;;15.25;10.40;;;19.50;99.90;;;;;;4135403;28;20066;-69
2021/08/23 07:35:56;;;;;;;12.13;9.52;;;19.40;99.90;;;;;;4137244;28;20050;-69
2021/08/23 07:37:56;;;;;;;14.13;10.70;;;19.50;99.90;;;;;;4136010;28;20468;-69
2021/08/23 07:39:57;;;;;;;15.15;10.25;;;19.50;99.90;;;;;;4137567;28;20022;-69
2021/08/23 07:41:57;;;;;;;12.95;9.45;;;19.50;99.90;;;;;;4137901;28;20099;-69
2021/08/23 07:43:58;;;;;;;13.77;9.82;;;19.50;99.90;;;;;;4137311;28;20088;-69
2021/08/23 07:45:58;;;;;;;14.18;10.02;;;19.50;99.90;;;;;;4134247;28;20038;-69
2021/08/23 07:47:59;;;;;;;15.80;10.73;;;19.40;99.90;;;;;;4137457;28;20108;-68
2021/08/23 07:49:59;;;;;;;12.27;9.10;;;19.40;99.90;;;;;;4137465;28;20517;-69
2021/08/23 07:52:01;;;;;;;15.55;10.57;;;19.40;99.90;;;;;;4133940;28;20089;-69
2021/08/23 07:54:01;;;;;;;15.75;11.32;;;19.40;99.90;;;;;;4151158;28;20033;-69
2021/08/23 07:56:03;;;;;;;14.00;10.40;;;19.40;99.90;;;;;;4136151;28;20068;-69
2021/08/23 07:58:04;;;;;;;15.35;10.57;;;19.40;99.90;;;;;;4135813;28;20042;-69
2021/08/23 08:00:05;;;;;;;16.58;13.27;;;19.40;99.90;;;;;;4135967;28;21174;-69
2021/08/23 08:02:06;;;;;;;15.00;10.27;;;19.40;99.90;;;;;;4136792;28;20044;-69
2021/08/23 08:04:06;;;;;;;15.52;10.18;;;19.40;99.90;;;;;;4134361;28;20405;-69
2021/08/23 08:06:07;;;;;;;15.50;11.23;;;19.40;99.90;;;;;;4137171;28;20401;-69
2021/08/23 08:08:09;;;;;;;13.90;10.80;;;19.40;99.90;;;;;;4134079;28;20127;-69
2021/08/23 08:10:11;;;;;;;14.68;9.88;;;19.40;99.90;;;;;;4134435;28;20072;-69
2021/08/23 08:12:12;;;;;;;;;;;19.40;99.90;;;;;;4137433;28;20184;-69
2021/08/23 08:14:12;;;;;;;15.15;11.57;;;19.50;99.90;;;;;;4134995;28;20445;-69
2021/08/23 08:16:13;;;;;;;15.80;10.98;;;19.50;99.90;;;;;;4135603;28;20056;-69
2021/08/23 08:18:14;;;;;;;15.80;11.38;;;19.50;99.90;;;;;;4136902;28;20063;-69
2021/08/23 08:20:14;;;;;;;15.27;10.75;;;19.50;99.90;;;;;;4135955;28;20045;-69
2021/08/23 08:22:15;;;;;;;15.82;11.35;;;19.50;99.90;;;;;;4136756;28;20141;-69
2021/08/23 08:24:16;;;;;;;13.82;10.50;;;19.60;99.90;;;;;;4137228;28;20535;-69
2021/08/23 08:26:16;;;;;;;13.40;10.18;;;19.60;99.90;;;;;;4137219;28;20092;-69
2021/08/23 08:28:17;;;;;;;15.80;9.90;;;19.50;99.90;;;;;;4136934;28;20053;-69
2021/08/23 08:30:17;;;;;;;16.02;11.98;;;19.60;99.90;;;;;;4136187;28;20037;-69
2021/08/23 08:32:18;;;;;;;14.23;10.25;;;19.50;99.90;;;;;;4135269;28;20837;-69
2021/08/23 08:34:18;;;;;;;13.27;9.98;;;19.60;99.90;;;;;;4141771;28;20038;-69
2021/08/23 08:36:21;;;;;;;13.52;10.52;;;19.70;99.90;;;;;;4143405;28;20037;-69
2021/08/23 08:38:21;;;;;;;16.35;10.93;;;19.80;99.90;;;;;;4146048;28;20049;-69
2021/08/23 08:40:23;;;;;;;13.38;10.18;;;19.80;99.90;;;;;;4150845;28;20045;-69
2021/08/23 08:42:23;;;;;;;13.20;9.93;;;19.90;99.90;;;;;;4144874;28;20078;-69
2021/08/23 08:44:24;;;;;;;16.42;11.52;;;20.00;99.90;;;;;;4149512;28;20111;-69
2021/08/23 08:46:25;;;;;;;14.00;10.75;;;20.00;99.90;;;;;;4149387;28;20081;-69
2021/08/23 08:48:26;;;;;;;14.90;10.57;;;20.10;99.90;;;;;;4145877;28;20038;-69
2021/08/23 08:50:27;;;;;;;17.25;11.38;;;20.10;99.90;;;;;;4148860;28;20100;-69
2021/08/23 08:52:28;;;;;;;15.45;11.32;;;20.20;99.90;;;;;;4151868;28;20034;-69
2021/08/23 08:54:29;;;;;;;16.88;10.43;;;20.20;99.90;;;;;;4150222;28;20037;-68
2021/08/23 08:56:34;;;;;;;13.65;10.20;;;20.10;99.90;;;;;;4150141;28;20518;-68
2021/08/23 08:58:34;;;;;;;11.85;8.65;;;20.10;99.90;;;;;;4148193;28;20410;-68
2021/08/23 09:00:39;;;;;;;10.15;7.72;;;20.10;99.90;;;;;;4148739;28;20112;-68
2021/08/23 09:02:40;;;;;;;9.63;7.25;;;20.00;99.90;;;;;;4151958;28;20486;-68
2021/08/23 09:04:40;;;;;;;10.00;7.63;;;20.10;99.90;;;;;;4152531;28;20136;-68
2021/08/23 09:06:42;;;;;;;9.32;7.25;;;20.10;99.90;;;;;;4153177;28;20052;-68
2021/08/23 09:08:48;;;;;;;7.60;6.28;;;20.10;99.90;;;;;;4152565;28;20045;-68
2021/08/23 09:10:48;;;;;;;10.45;7.55;;;20.10;99.90;;;;;;4151300;28;20675;-68
2021/08/23 09:13:06;;;;;;;11.18;8.10;;;20.10;99.90;;;;;;4151225;28;20120;-68
2021/08/23 09:15:07;;;;;;;9.35;6.75;;;20.20;99.90;;;;;;4146969;28;20414;-68
2021/08/23 09:17:09;;;;;;;10.10;7.75;;;20.20;99.90;;;;;;4151277;28;20029;-68
2021/08/23 09:19:21;;;;;;;12.05;7.88;;;20.20;99.90;;;;;;4136995;28;20454;-68
2021/08/23 09:21:36;;;;;;;10.82;7.50;;;20.20;99.90;;;;;;4152296;28;20100;-68
2021/08/23 09:23:40;;;;;;;12.82;8.68;;;20.30;99.90;;;;;;4151743;28;20749;-68
2021/08/23 09:25:41;;;;;;;12.63;8.13;;;20.40;99.90;;;;;;4149428;28;20050;-68
2021/08/23 09:27:42;;;;;;;9.25;6.75;;;20.30;99.90;;;;;;4144248;28;20049;-68
2021/08/23 09:29:56;;;;;;;7.43;6.38;;;20.40;99.90;;;;;;4147162;28;20053;-68
2021/08/23 09:32:00;;;;;;;8.60;6.57;;;20.30;99.90;;;;;;4142744;28;20378;-69
2021/08/23 09:34:09;;;;;;;8.75;6.70;;;20.30;99.90;;;;;;4149070;28;20101;-68
2021/08/23 09:36:11;;;;;;;9.45;5.97;;;20.40;99.90;;;;;;4154565;28;20036;-68
2021/08/23 09:38:13;;;;;;;7.13;5.23;;;20.40;99.90;;;;;;4145680;28;20041;-68
2021/08/23 09:40:14;;;;;;;10.98;7.28;;;20.40;99.90;;;;;;4151657;28;20087;-68
2021/08/23 09:42:23;;;;;;;9.07;6.07;;;20.40;99.90;;;;;;4153532;28;20072;-68
2021/08/23 09:44:37;;;;;;;9.70;6.28;;;20.40;99.90;;;;;;4145438;28;20296;-68
2021/08/23 09:46:39;;;;;;;8.98;7.38;;;20.40;99.90;;;;;;4151959;28;20061;-68
2021/08/23 09:48:53;;;;;;;7.23;5.93;;;20.40;99.90;;;;;;4144575;28;20551;-68
2021/08/23 09:50:54;;;;;;;9.43;6.78;;;20.50;99.90;;;;;;4152358;28;20080;-68
2021/08/23 09:53:06;;;;;;;11.25;7.25;;;20.50;99.90;;;;;;4145002;28;20041;-69
2021/08/23 09:55:09;;;;;;;10.20;6.30;;;20.50;99.90;;;;;;4138430;28;20046;-68
2021/08/23 09:57:11;;;;;;;7.93;6.30;;;20.50;99.90;;;;;;4151436;28;20265;-68
2021/08/23 09:59:17;;;;;;;10.30;6.85;;;20.50;99.90;;;;;;4139544;28;20042;-68
2021/08/23 10:01:17;;;;;;;7.32;5.38;;;20.60;99.90;;;;;;4150974;28;20069;-68
2021/08/23 10:03:21;;;;;;;7.63;5.75;;;20.50;99.90;;;;;;4145546;28;20041;-68
2021/08/23 10:05:22;;;;;;;7.68;5.93;;;20.50;99.90;;;;;;4145351;28;20076;-68
2021/08/23 10:07:26;;;;;;;7.72;6.13;;;20.60;99.90;;;;;;4137102;28;20038;-68
2021/08/23 10:09:28;;;;;;;7.97;5.05;;;20.60;99.90;;;;;;4135668;28;20486;-68
2021/08/23 10:11:33;;;;;;;7.22;5.13;;;20.60;99.90;;;;;;4139024;28;20544;-68
2021/08/23 10:13:35;;;;;;;5.70;4.60;;;20.60;99.90;;;;;;4147743;28;20207;-68
2021/08/23 10:15:37;;;;;;;6.80;4.65;;;20.60;99.90;;;;;;4149065;28;20075;-68
2021/08/23 10:17:38;;;;;;;8.27;4.77;;;20.60;99.90;;;;;;4143384;28;20033;-68
2021/08/23 10:19:40;;;;;;;6.68;5.50;;;20.60;99.90;;;;;;4149964;28;20534;-68
2021/08/23 10:21:45;;;;;;;8.23;5.07;;;20.50;99.90;;;;;;4148295;28;20033;-68
2021/08/23 10:23:48;;;;;;;7.05;5.10;;;20.50;99.90;;;;;;4149940;28;20042;-68
2021/08/23 10:25:49;;;;;;;5.80;4.63;;;20.60;99.90;;;;;;4142582;28;20057;-68
2021/08/23 10:27:49;;;;;;;8.15;6.30;;;20.60;99.90;;;;;;4166857;28;20582;-68